Pointblank, Texas
Current Conditions -  °F | °C
As of 12:53 PM on Friday 28 Nov 2014 (Local Time) from KUTS Reporting Station
Clear Clear  
Wind Chill: 68°   Ceiling: Unl
Heat Index: 68°   Visibility: 10mi
Dew Point: 51°   Wind: 7mph
Humidity: 55%   Direction: NA
Pressure: 30.22"   Gusts: NA
Location:  30.74°N, 95.21°W
Report Text: KUTS 281853Z AUTO VRB06KT 10SM CLR 20/11 A3022 RMK AO2 SLP230 T02000106
Loading
Personal Weather Stations






























Interactive Weather Map New forecast layout! Learn more

10-Day Weather Forecast

Advertisements
Track Severe Weather on mobile